createdAt,value
2019-05-03T00:02:29.785Z,98237.28
2019-05-03T00:05:23.296Z,98227.95
2019-05-03T00:07:59.664Z,98228.11
2019-05-03T00:10:32.819Z,98226.19
2019-05-03T00:13:06.019Z,98227.77
2019-05-03T00:15:38.592Z,98229.64
2019-05-03T00:18:12.302Z,98223.53
2019-05-03T00:20:44.841Z,98218.70
2019-05-03T00:23:17.299Z,98218.70
2019-05-03T00:25:50.054Z,98207.83
2019-05-03T00:28:22.740Z,98207.83
2019-05-03T00:30:55.309Z,98225.91
2019-05-03T00:33:31.817Z,98223.08
2019-05-03T00:36:12.316Z,98223.59
2019-05-03T00:38:44.748Z,98217.63
2019-05-03T00:41:17.326Z,98218.37
2019-05-03T00:43:51.734Z,98189.42
2019-05-03T00:46:23.802Z,98189.42
2019-05-03T00:49:00.800Z,98214.27
2019-05-03T00:51:33.279Z,98219.30
2019-05-03T00:54:05.805Z,98207.20
2019-05-03T00:56:38.396Z,98207.20
2019-05-03T00:59:12.656Z,98210.83
2019-05-03T01:01:45.319Z,98210.83
2019-05-03T01:04:17.858Z,98214.02
2019-05-03T01:06:50.304Z,98214.02
2019-05-03T01:09:23.985Z,98205.54
2019-05-03T01:12:01.950Z,98205.54
2019-05-03T01:14:36.301Z,98205.27
2019-05-03T01:17:08.414Z,98212.05
2019-05-03T01:19:40.321Z,98206.65
2019-05-03T01:22:12.710Z,98188.21
2019-05-03T01:24:45.285Z,98188.21
2019-05-03T01:27:17.641Z,98204.50
2019-05-03T01:29:51.943Z,98204.50
2019-05-03T01:32:25.204Z,98209.68
2019-05-03T01:35:03.188Z,98212.72
2019-05-03T01:37:35.888Z,98212.72
2019-05-03T01:40:10.297Z,98216.12
2019-05-03T01:42:46.330Z,98220.69
2019-05-03T01:45:18.846Z,98198.54
2019-05-03T01:47:59.019Z,98198.54
2019-05-03T01:50:39.383Z,98217.08
2019-05-03T01:53:13.319Z,98213.39
2019-05-03T01:55:53.345Z,98215.40
2019-05-03T01:58:27.655Z,98215.40
2019-05-03T02:01:16.651Z,98213.33
2019-05-03T02:04:06.817Z,98210.17
2019-05-03T02:06:39.301Z,98212.63
2019-05-03T02:09:12.201Z,98215.66
2019-05-03T02:11:44.720Z,98214.91
2019-05-03T02:14:17.312Z,98212.84
2019-05-03T02:16:49.245Z,98207.28
2019-05-03T02:19:22.356Z,98207.28
2019-05-03T02:21:54.306Z,98210.76
2019-05-03T02:24:28.089Z,98215.84
2019-05-03T02:27:02.167Z,98220.50
2019-05-03T02:29:34.693Z,98217.52
2019-05-03T02:32:07.301Z,98219.11
2019-05-03T02:34:39.598Z,98195.98
2019-05-03T02:37:13.866Z,98195.98
2019-05-03T02:39:47.048Z,98216.20
2019-05-03T02:42:19.720Z,98220.28
2019-05-03T02:44:55.320Z,98214.98
2019-05-03T02:47:28.875Z,98222.92
2019-05-03T02:50:05.978Z,98217.84
2019-05-03T02:52:38.009Z,98218.39
2019-05-03T02:55:16.028Z,98219.11
2019-05-03T02:57:47.469Z,98224.82
2019-05-03T03:00:25.289Z,98225.87
2019-05-03T03:02:58.284Z,98226.84
2019-05-03T03:05:31.518Z,98227.75
2019-05-03T03:08:06.329Z,98227.75
2019-05-03T03:10:45.338Z,98222.57
2019-05-03T03:13:19.523Z,98226.37
2019-05-03T03:15:55.455Z,98225.10
2019-05-03T03:18:36.401Z,98225.61
2019-05-03T03:21:20.869Z,98230.61
2019-05-03T03:24:13.051Z,98230.61
2019-05-03T03:26:47.296Z,98229.58
2019-05-03T03:29:27.304Z,98231.27
2019-05-03T03:32:20.047Z,98233.25
2019-05-03T03:35:21.239Z,98233.25
2019-05-03T03:37:50.926Z,98239.14
2019-05-03T03:40:25.532Z,98230.75
2019-05-03T03:43:05.224Z,98238.39
2019-05-03T03:45:39.546Z,98234.13
2019-05-03T03:48:15.862Z,98229.02
2019-05-03T03:50:52.296Z,98230.85
2019-05-03T03:53:27.537Z,98231.80
2019-05-03T03:56:05.554Z,98231.80
2019-05-03T03:58:38.459Z,98229.70
2019-05-03T04:01:15.526Z,98237.79
2019-05-03T04:03:47.364Z,98239.09
2019-05-03T04:06:21.556Z,98232.05
2019-05-03T04:08:56.114Z,98232.05
2019-05-03T04:11:29.037Z,98251.95
2019-05-03T04:14:01.572Z,98251.95
2019-05-03T04:16:58.181Z,98259.05
2019-05-03T04:19:36.606Z,98259.41
2019-05-03T04:22:09.415Z,98264.02
2019-05-03T04:24:42.050Z,98272.52
2019-05-03T04:27:22.742Z,98267.74
2019-05-03T04:29:55.582Z,98273.70
2019-05-03T04:32:29.249Z,98270.00
2019-05-03T04:35:01.790Z,98272.58
2019-05-03T04:37:35.895Z,98272.58
2019-05-03T04:40:10.456Z,98281.00
2019-05-03T04:42:46.806Z,98275.05
2019-05-03T04:45:17.354Z,98282.59
2019-05-03T04:47:49.720Z,98282.81
2019-05-03T04:50:25.264Z,98282.81
2019-05-03T04:52:56.927Z,98286.90
2019-05-03T04:55:29.703Z,98291.05
2019-05-03T04:58:04.647Z,98282.02
2019-05-03T05:00:36.212Z,98290.53
2019-05-03T05:03:08.974Z,98292.48
2019-05-03T05:05:41.738Z,98283.22
2019-05-03T05:08:16.302Z,98283.22
2019-05-03T05:10:48.398Z,98303.86
2019-05-03T05:13:21.280Z,98302.64
2019-05-03T05:15:55.067Z,98304.73
2019-05-03T05:18:36.759Z,98304.73
2019-05-03T05:21:11.306Z,98301.11
2019-05-03T05:23:47.598Z,98304.39
2019-05-03T05:26:24.877Z,98304.39
2019-05-03T05:29:05.393Z,98314.06
2019-05-03T05:31:37.894Z,98322.88
2019-05-03T05:34:10.473Z,98317.59
2019-05-03T05:36:45.075Z,98320.59
2019-05-03T05:39:21.361Z,98327.99
2019-05-03T05:41:55.458Z,98322.55
2019-05-03T05:44:29.319Z,98322.55
2019-05-03T05:47:04.691Z,98316.20
2019-05-03T05:49:55.011Z,98316.20
2019-05-03T05:52:29.354Z,98334.53
2019-05-03T05:55:04.632Z,98336.83
2019-05-03T05:57:45.014Z,98336.83
2019-05-03T06:00:25.637Z,98343.86
2019-05-03T06:02:59.501Z,98351.52
2019-05-03T06:05:32.047Z,98357.13
2019-05-03T06:08:05.386Z,98357.70
2019-05-03T06:10:42.354Z,98363.39
2019-05-03T06:13:29.336Z,98377.17
2019-05-03T06:16:10.980Z,98377.17
2019-05-03T06:18:54.280Z,98389.54
2019-05-03T06:21:26.293Z,98392.52
2019-05-03T06:24:06.429Z,98388.86
2019-05-03T06:26:40.404Z,98392.31
2019-05-03T06:29:14.830Z,98405.73
2019-05-03T06:31:48.849Z,98406.30
2019-05-03T06:34:21.516Z,98414.48
2019-05-03T06:36:55.566Z,98411.59
2019-05-03T06:39:30.307Z,98411.91
2019-05-03T06:42:05.071Z,98386.27
2019-05-03T06:44:37.348Z,98386.27
2019-05-03T06:47:10.592Z,98422.44
2019-05-03T06:49:44.893Z,98422.30
2019-05-03T06:52:19.629Z,98429.80
2019-05-03T06:54:51.631Z,98425.25
2019-05-03T06:57:25.409Z,98428.69
2019-05-03T07:00:10.287Z,98433.18
2019-05-03T07:02:44.762Z,98419.53
2019-05-03T07:05:22.067Z,98419.53
2019-05-03T07:08:15.146Z,98438.44
2019-05-03T07:10:49.508Z,98428.91
2019-05-03T07:13:22.303Z,98427.55
2019-05-03T07:15:56.001Z,98428.80
2019-05-03T07:21:16.743Z,98435.65
2019-05-03T07:23:49.278Z,98444.80
2019-05-03T07:26:21.764Z,98456.23
2019-05-03T07:28:54.638Z,98456.23
2019-05-03T07:31:27.302Z,98445.63
2019-05-03T07:34:00.406Z,98452.50
2019-05-03T07:36:32.854Z,98458.92
2019-05-03T07:39:07.636Z,98461.19
2019-05-03T07:41:40.269Z,98457.22
2019-05-03T07:44:12.685Z,98463.71
2019-05-03T07:46:45.364Z,98463.71
2019-05-03T07:49:17.865Z,98466.02
2019-05-03T07:51:50.756Z,98466.73
2019-05-03T07:54:24.838Z,98470.64
2019-05-03T07:56:59.225Z,98465.99
2019-05-03T07:59:31.802Z,98468.08
2019-05-03T08:02:05.566Z,98469.56
2019-05-03T08:04:37.754Z,98462.94
2019-05-03T08:07:20.664Z,98465.77
2019-05-03T08:09:46.050Z,98476.06
2019-05-03T08:12:19.299Z,98471.02
2019-05-03T08:14:51.841Z,98465.67
2019-05-03T08:17:25.663Z,98465.67
2019-05-03T08:19:59.671Z,98463.95
2019-05-03T08:22:34.406Z,98461.33
2019-05-03T08:25:09.313Z,98458.22
2019-05-03T08:27:41.880Z,98461.02
2019-05-03T08:30:16.710Z,98461.02
2019-05-03T08:32:54.925Z,98474.42
2019-05-03T08:35:35.434Z,98463.41
2019-05-03T08:38:07.257Z,98445.03
2019-05-03T08:40:41.514Z,98470.09
2019-05-03T08:43:15.421Z,98470.09
2019-05-03T08:45:47.844Z,98473.23
2019-05-03T08:48:20.443Z,98468.92
2019-05-03T08:50:55.288Z,98470.31
2019-05-03T08:53:27.286Z,98472.64
2019-05-03T08:56:01.395Z,98477.76
2019-05-03T08:58:35.128Z,98475.43
2019-05-03T09:01:09.470Z,98472.53
2019-05-03T09:03:42.294Z,98476.07
2019-05-03T09:06:15.519Z,98461.30
2019-05-03T09:08:48.576Z,98461.30
2019-05-03T09:11:31.836Z,98484.40
2019-05-03T09:13:57.334Z,98486.91
2019-05-03T09:16:31.572Z,98482.11
2019-05-03T09:19:05.547Z,98482.77
2019-05-03T09:21:38.627Z,98481.53
2019-05-03T09:24:36.378Z,98482.45
2019-05-03T09:27:09.342Z,98473.28
2019-05-03T09:30:35.713Z,98473.28
2019-05-03T09:37:07.867Z,98474.52
2019-05-03T09:39:40.601Z,98477.50
2019-05-03T09:42:14.908Z,98478.30
2019-05-03T09:44:47.859Z,98481.41
2019-05-03T12:10:52.303Z,98410.78
2019-05-03T12:13:21.021Z,98410.78
2019-05-03T12:15:55.267Z,98413.06
2019-05-03T12:18:28.456Z,98410.20
2019-05-03T12:21:07.218Z,98407.08
2019-05-03T12:23:39.992Z,98407.58
2019-05-03T12:26:14.716Z,98410.82
2019-05-03T12:28:47.479Z,98404.66
2019-05-03T12:31:31.757Z,98399.00
2019-05-03T12:33:55.151Z,98396.89
2019-05-03T12:36:27.263Z,98396.27
2019-05-03T12:39:01.377Z,98390.13
2019-05-03T12:41:35.414Z,98390.19
2019-05-03T12:44:08.113Z,98386.74
2019-05-03T12:46:45.035Z,98385.59
2019-05-03T12:49:17.585Z,98379.02
2019-05-03T12:51:50.333Z,98384.42
2019-05-03T12:54:25.551Z,98379.34
2019-05-03T12:56:58.273Z,98376.36
2019-05-03T12:59:30.383Z,98352.94
2019-05-03T13:02:07.100Z,98352.94
2019-05-03T13:04:44.688Z,98348.65
2019-05-03T13:07:19.093Z,98355.31
2019-05-03T13:09:51.776Z,98359.36
2019-05-03T13:12:28.749Z,98346.50
2019-05-03T13:15:51.766Z,98343.89
2019-05-03T13:18:25.258Z,98336.36
2019-05-03T13:20:58.037Z,98334.31
2019-05-03T13:23:30.684Z,98329.26
2019-05-03T13:26:06.737Z,98323.86
2019-05-03T13:28:39.392Z,98323.86
2019-05-03T13:31:26.458Z,98331.11
2019-05-03T13:33:58.884Z,98331.11
2019-05-03T13:36:31.285Z,98323.20
2019-05-03T13:39:13.965Z,98322.69
2019-05-03T13:41:45.504Z,98322.31
2019-05-03T13:44:18.418Z,98317.84
2019-05-03T13:46:51.097Z,98312.06
2019-05-03T13:49:23.410Z,98304.78
2019-05-03T13:51:55.771Z,98309.04
2019-05-03T13:54:28.337Z,98308.55
2019-05-03T13:57:00.649Z,98300.67
2019-05-03T13:59:35.021Z,98300.67
2019-05-03T14:02:15.181Z,98296.83
2019-05-03T14:04:50.197Z,98273.42
2019-05-03T14:07:15.246Z,98285.59
2019-05-03T14:09:47.462Z,98285.59
2019-05-03T14:12:19.871Z,98284.59
2019-05-03T14:14:55.949Z,98279.98
2019-05-03T14:17:29.464Z,98281.66
2019-05-03T14:20:06.331Z,98283.77
2019-05-03T14:22:40.383Z,98283.41
2019-05-03T14:25:12.791Z,98278.58
2019-05-03T14:27:45.691Z,98278.58
2019-05-03T14:30:20.285Z,98284.44
2019-05-03T14:32:52.783Z,98288.17
2019-05-03T14:35:25.289Z,98288.17
2019-05-03T14:37:57.292Z,98290.26
2019-05-03T14:40:29.263Z,98284.22
2019-05-03T14:43:01.851Z,98280.70
2019-05-03T14:45:35.303Z,98274.05
2019-05-03T14:48:08.522Z,98273.13
2019-05-03T14:50:41.354Z,98273.13
2019-05-03T14:53:14.756Z,98274.23
2019-05-03T14:55:49.316Z,98276.56
2019-05-03T14:58:32.373Z,98257.00
2019-05-03T15:01:12.395Z,98257.00
2019-05-03T15:03:45.218Z,98267.38
2019-05-03T15:06:17.793Z,98264.56
2019-05-03T15:08:50.498Z,98264.56
2019-05-03T15:11:23.018Z,98276.63
2019-05-03T15:13:57.297Z,98282.13
2019-05-03T15:16:29.290Z,98268.38
2019-05-03T15:19:02.394Z,98264.97
2019-05-03T15:21:35.809Z,98264.97
2019-05-03T15:24:07.738Z,98270.72
2019-05-03T15:26:40.288Z,98267.66
2019-05-03T15:29:12.256Z,98273.89
2019-05-03T15:31:47.282Z,98273.89
2019-05-03T15:34:20.810Z,98278.95
2019-05-03T15:36:54.707Z,98273.16
2019-05-03T15:39:27.782Z,98281.48
2019-05-03T15:42:05.297Z,98286.59
2019-05-03T15:44:54.391Z,98282.45
2019-05-03T15:47:44.615Z,98283.54
2019-05-03T15:52:50.259Z,98279.50
2019-05-03T15:55:26.047Z,98278.12
2019-05-03T15:57:58.681Z,98278.12
2019-05-03T16:00:31.576Z,98283.48
2019-05-03T16:03:08.878Z,98288.29
2019-05-03T16:05:38.395Z,98284.31
2019-05-03T16:08:10.878Z,98271.20
2019-05-03T16:10:45.528Z,98271.20
2019-05-03T16:13:22.453Z,98284.03
2019-05-03T16:15:55.641Z,98275.46
2019-05-03T16:18:28.599Z,98243.88
2019-05-03T16:21:01.128Z,98243.88
2019-05-03T16:23:35.346Z,98281.09
2019-05-03T16:26:14.350Z,98280.48
2019-05-03T16:28:48.291Z,98280.48
2019-05-03T16:31:22.249Z,98280.48
2019-05-03T16:33:55.233Z,98278.59
2019-05-03T16:36:27.835Z,98274.94
2019-05-03T16:39:00.586Z,98279.22
2019-05-03T16:41:35.390Z,98274.14
2019-05-03T16:44:07.784Z,98275.48
2019-05-03T16:46:40.395Z,98277.61
2019-05-03T16:49:12.831Z,98280.20
2019-05-03T16:51:46.404Z,98283.61
2019-05-03T16:54:18.855Z,98276.84
2019-05-03T16:56:51.338Z,98292.27
2019-05-03T16:59:24.760Z,98290.63
2019-05-03T17:01:57.421Z,98290.63
2019-05-03T17:04:34.623Z,98288.36
2019-05-03T17:07:15.131Z,98293.05
2019-05-03T17:09:49.300Z,98295.48
2019-05-03T17:12:25.746Z,98294.84
2019-05-03T17:14:58.622Z,98290.24
2019-05-03T17:17:31.311Z,98290.24
2019-05-03T17:20:05.210Z,98280.70
2019-05-03T17:22:37.775Z,98280.70
2019-05-03T17:25:10.362Z,98296.88
2019-05-03T17:27:44.818Z,98289.31
2019-05-03T17:30:17.485Z,98295.04
2019-05-03T17:32:49.901Z,98293.70
2019-05-03T17:35:22.311Z,98285.78
2019-05-03T17:37:55.048Z,98293.06
2019-05-03T17:40:27.621Z,98293.06
2019-05-03T17:43:05.034Z,98296.64
2019-05-03T17:45:42.286Z,98293.42
2019-05-03T17:48:14.987Z,98294.17
2019-05-03T17:50:47.578Z,98294.17
2019-05-03T17:53:27.667Z,98294.49
2019-05-03T17:56:01.967Z,98304.50
2019-05-03T17:58:52.838Z,98295.52
2019-05-03T18:01:44.559Z,98295.26
2019-05-03T18:04:21.363Z,98299.91
2019-05-03T18:06:55.657Z,98296.63
2019-05-03T18:09:30.314Z,98296.63
2019-05-03T18:12:04.648Z,98301.44
2019-05-03T18:14:37.783Z,98276.71
2019-05-03T18:17:10.322Z,98276.71
2019-05-03T18:19:44.696Z,98297.25
2019-05-03T18:22:16.792Z,98312.36
2019-05-03T18:24:49.301Z,98312.36
2019-05-03T18:27:21.750Z,98307.15
2019-05-03T18:29:55.434Z,98307.15
2019-05-03T18:32:27.865Z,98308.25
2019-05-03T18:35:00.367Z,98309.70
2019-05-03T18:37:34.837Z,98307.23
2019-05-03T18:40:10.341Z,98307.23
2019-05-03T18:42:50.370Z,98309.78
2019-05-03T18:45:42.295Z,98283.70
2019-05-03T18:48:15.298Z,98283.70
2019-05-03T18:50:47.740Z,98313.29
2019-05-03T18:53:20.278Z,98313.29
2019-05-03T18:55:52.833Z,98321.77
2019-05-03T18:58:27.071Z,98324.41
2019-05-03T19:00:59.694Z,98327.88
2019-05-03T19:03:32.295Z,98336.20
2019-05-03T19:06:14.302Z,98344.16
2019-05-03T19:09:05.250Z,98330.43
2019-05-03T19:11:47.315Z,98330.43
2019-05-03T19:14:21.364Z,98322.35
2019-05-03T19:17:01.464Z,98309.91
2019-05-03T19:19:39.308Z,98309.91
2019-05-03T19:22:12.297Z,98318.00
2019-05-03T19:24:44.692Z,98340.34
2019-05-03T19:27:17.307Z,98340.34
2019-05-03T19:29:49.597Z,98331.53
2019-05-03T19:32:22.319Z,98331.53
2019-05-03T19:34:54.901Z,98323.26
2019-05-03T19:37:28.168Z,98323.26
2019-05-03T19:40:00.586Z,98350.81
2019-05-03T19:42:35.248Z,98357.44
2019-05-03T19:45:09.311Z,98351.05
2019-05-03T19:47:40.913Z,98314.88
2019-05-03T19:50:15.726Z,98314.88
2019-05-03T19:53:06.530Z,98347.66
2019-05-03T19:55:38.923Z,98347.09
2019-05-03T19:58:11.417Z,98349.98
2019-05-03T20:00:57.424Z,98352.89
2019-05-03T20:03:36.023Z,98356.80
2019-05-03T20:06:19.570Z,98358.12
2019-05-03T20:08:56.529Z,98351.96
2019-05-03T20:11:29.103Z,98344.65
2019-05-03T20:14:01.708Z,98351.09
2019-05-03T20:16:34.749Z,98348.23
2019-05-03T20:19:17.671Z,98352.05
2019-05-03T20:21:42.675Z,98343.92
2019-05-03T20:24:15.290Z,98343.92
2019-05-03T20:26:48.051Z,98312.81
2019-05-03T20:29:20.451Z,98312.81
2019-05-03T20:31:52.823Z,98345.25
2019-05-03T20:34:25.314Z,98351.29
2019-05-03T20:36:57.613Z,98344.33
2019-05-03T20:39:30.305Z,98344.33
2019-05-03T20:42:04.441Z,98351.73
2019-05-03T20:44:54.523Z,98351.73
2019-05-03T20:47:28.556Z,98342.86
2019-05-03T20:50:17.332Z,98342.62
2019-05-03T20:52:49.759Z,98338.71
2019-05-03T20:55:22.316Z,98338.71
2019-05-03T20:57:56.507Z,98320.00
2019-05-03T21:00:29.038Z,98320.00
2019-05-03T21:03:01.452Z,98333.42
2019-05-03T21:05:36.818Z,98340.42
2019-05-03T21:08:08.422Z,98336.05
2019-05-03T21:10:40.827Z,98344.88
2019-05-03T21:13:14.622Z,98352.51
2019-05-03T21:16:14.643Z,98344.48
2019-05-03T21:18:56.311Z,98342.86
2019-05-03T21:21:39.416Z,98350.62
2019-05-03T21:24:19.315Z,98350.62
2019-05-03T21:26:51.759Z,98312.28
2019-05-03T21:29:24.311Z,98312.28
2019-05-03T21:31:56.592Z,98328.16
2019-05-03T21:34:29.075Z,98328.16
2019-05-03T21:37:01.496Z,98340.05
2019-05-03T21:39:34.855Z,98329.48
2019-05-03T21:42:08.521Z,98333.44
2019-05-03T21:44:40.882Z,98340.05
2019-05-03T21:47:22.144Z,98331.67
2019-05-03T21:49:56.346Z,98328.39
2019-05-03T21:53:22.295Z,98327.56
2019-05-03T21:55:56.647Z,98330.42
2019-05-03T21:58:29.043Z,98332.36
2019-05-03T22:01:05.060Z,98327.13
2019-05-03T22:03:42.038Z,98323.61
2019-05-03T22:06:15.410Z,98323.61
2019-05-03T22:08:49.294Z,98332.11
2019-05-03T22:11:21.272Z,98329.27
2019-05-03T22:13:57.026Z,98315.38
2019-05-03T22:16:45.015Z,98319.72
2019-05-03T22:19:19.473Z,98314.88
2019-05-03T22:22:05.604Z,98314.88
2019-05-03T22:24:44.684Z,98317.08
2019-05-03T22:27:17.317Z,98316.00
2019-05-03T22:29:49.644Z,98298.44
2019-05-03T22:32:22.304Z,98298.44
2019-05-03T22:34:54.596Z,98299.77
2019-05-03T22:37:27.055Z,98299.77
2019-05-03T22:39:59.354Z,98303.66
2019-05-03T22:42:34.439Z,98296.84
2019-05-03T22:45:08.607Z,98294.71
2019-05-03T22:47:41.314Z,98291.32
2019-05-03T22:50:14.885Z,98278.84
2019-05-03T22:52:47.698Z,98278.84
2019-05-03T22:55:20.294Z,98283.38
2019-05-03T22:57:54.587Z,98269.84
2019-05-03T23:00:27.310Z,98269.84
2019-05-03T23:03:02.806Z,98271.55
2019-05-03T23:05:37.262Z,98271.55
2019-05-03T23:08:11.169Z,98268.53
2019-05-03T23:10:45.134Z,98254.11
2019-05-03T23:13:18.298Z,98251.78
2019-05-03T23:15:50.669Z,98241.94
2019-05-03T23:18:24.650Z,98241.94
2019-05-03T23:21:05.704Z,98249.63
2019-05-03T23:23:54.657Z,98247.29
2019-05-03T23:26:26.806Z,98241.25
2019-05-03T23:28:59.321Z,98240.73
2019-05-03T23:31:31.729Z,98234.06
2019-05-03T23:34:04.941Z,98234.06
2019-05-03T23:36:39.323Z,98231.84
2019-05-03T23:39:11.842Z,98195.83
2019-05-03T23:41:44.293Z,98195.83
2019-05-03T23:44:18.302Z,98205.70
2019-05-03T23:46:55.296Z,98222.05
2019-05-03T23:49:27.662Z,98183.58
2019-05-03T23:52:17.469Z,98183.58
2019-05-03T23:54:49.804Z,98209.66
2019-05-03T23:57:25.177Z,98207.75
2019-05-03T23:59:58.295Z,98198.35
